sensor_id;sensor_type;location;lat;lon;timestamp;temperature;humidity
10583;DHT22;33679;51.218;6.786;2023-03-01T00:00:52;5.40;99.90
10583;DHT22;33679;51.218;6.786;2023-03-01T00:03:24;5.40;99.90
10583;DHT22;33679;51.218;6.786;2023-03-01T00:05:57;5.40;99.90
10583;DHT22;33679;51.218;6.786;2023-03-01T00:08:30;5.30;99.90
10583;DHT22;33679;51.218;6.786;2023-03-01T00:11:07;5.30;99.90
10583;DHT22;33679;51.218;6.786;2023-03-01T00:13:40;5.30;99.90
10583;DHT22;33679;51.218;6.786;2023-03-01T00:16:17;5.30;99.90
10583;DHT22;33679;51.218;6.786;2023-03-01T00:18:50;5.30;99.90
10583;DHT22;33679;51.218;6.786;2023-03-01T00:21:25;5.30;99.90
10583;DHT22;33679;51.218;6.786;2023-03-01T00:23:58;5.30;99.90
10583;DHT22;33679;51.218;6.786;2023-03-01T00:26:32;5.30;99.90
10583;DHT22;33679;51.218;6.786;2023-03-01T00:29:05;5.30;99.90
10583;DHT22;33679;51.218;6.786;2023-03-01T00:31:40;5.30;99.90
10583;DHT22;33679;51.218;6.786;2023-03-01T00:34:13;5.30;99.90
10583;DHT22;33679;51.218;6.786;2023-03-01T00:36:46;5.40;99.90
10583;DHT22;33679;51.218;6.786;2023-03-01T00:39:18;5.30;99.90
10583;DHT22;33679;51.218;6.786;2023-03-01T00:41:51;5.30;99.90
10583;DHT22;33679;51.218;6.786;2023-03-01T00:44:24;5.30;99.90
10583;DHT22;33679;51.218;6.786;2023-03-01T00:46:58;5.30;99.90
10583;DHT22;33679;51.218;6.786;2023-03-01T00:49:31;5.30;99.90
10583;DHT22;33679;51.218;6.786;2023-03-01T00:52:04;5.30;99.90
10583;DHT22;33679;51.218;6.786;2023-03-01T00:54:37;5.20;99.90
10583;DHT22;33679;51.218;6.786;2023-03-01T00:57:10;5.20;99.90
10583;DHT22;33679;51.218;6.786;2023-03-01T00:59:48;5.20;99.90
10583;DHT22;33679;51.218;6.786;2023-03-01T01:02:25;5.20;99.90
10583;DHT22;33679;51.218;6.786;2023-03-01T01:04:58;5.20;99.90
10583;DHT22;33679;51.218;6.786;2023-03-01T01:07:31;5.20;99.90
10583;DHT22;33679;51.218;6.786;2023-03-01T01:10:09;5.20;99.90
10583;DHT22;33679;51.218;6.786;2023-03-01T01:12:47;5.20;99.90
10583;DHT22;33679;51.218;6.786;2023-03-01T01:15:20;5.10;99.90
10583;DHT22;33679;51.218;6.786;2023-03-01T01:17:54;5.00;99.90
10583;DHT22;33679;51.218;6.786;2023-03-01T01:20:27;5.00;99.90
10583;DHT22;33679;51.218;6.786;2023-03-01T01:23:00;5.00;99.90
10583;DHT22;33679;51.218;6.786;2023-03-01T01:25:34;5.00;99.90
10583;DHT22;33679;51.218;6.786;2023-03-01T01:28:07;4.90;99.90
10583;DHT22;33679;51.218;6.786;2023-03-01T01:30:42;4.90;99.90
10583;DHT22;33679;51.218;6.786;2023-03-01T01:33:16;4.90;99.90
10583;DHT22;33679;51.218;6.786;2023-03-01T01:35:49;4.90;99.90
10583;DHT22;33679;51.218;6.786;2023-03-01T01:38:22;4.90;99.90
10583;DHT22;33679;51.218;6.786;2023-03-01T01:40:58;4.90;99.90
10583;DHT22;33679;51.218;6.786;2023-03-01T01:43:41;4.90;99.90
10583;DHT22;33679;51.218;6.786;2023-03-01T01:46:21;4.80;99.90
10583;DHT22;33679;51.218;6.786;2023-03-01T01:49:02;4.80;99.90
10583;DHT22;33679;51.218;6.786;2023-03-01T01:51:39;4.80;99.90
10583;DHT22;33679;51.218;6.786;2023-03-01T01:54:15;4.80;99.90
10583;DHT22;33679;51.218;6.786;2023-03-01T01:56:54;4.90;99.90
10583;DHT22;33679;51.218;6.786;2023-03-01T01:59:29;4.90;99.90
10583;DHT22;33679;51.218;6.786;2023-03-01T02:02:03;4.80;99.90
10583;DHT22;33679;51.218;6.786;2023-03-01T02:04:40;4.80;99.90
10583;DHT22;33679;51.218;6.786;2023-03-01T02:07:16;4.80;99.90
10583;DHT22;33679;51.218;6.786;2023-03-01T02:09:52;4.80;99.90
10583;DHT22;33679;51.218;6.786;2023-03-01T02:12:28;4.80;99.90
10583;DHT22;33679;51.218;6.786;2023-03-01T02:15:12;4.70;99.90
10583;DHT22;33679;51.218;6.786;2023-03-01T02:17:45;4.70;99.90
10583;DHT22;33679;51.218;6.786;2023-03-01T02:20:24;4.70;99.90
10583;DHT22;33679;51.218;6.786;2023-03-01T02:23:00;4.70;99.90
10583;DHT22;33679;51.218;6.786;2023-03-01T02:25:40;4.70;99.90
10583;DHT22;33679;51.218;6.786;2023-03-01T02:28:38;4.70;99.90
10583;DHT22;33679;51.218;6.786;2023-03-01T02:31:16;4.70;99.90
10583;DHT22;33679;51.218;6.786;2023-03-01T02:34:08;4.60;99.90
10583;DHT22;33679;51.218;6.786;2023-03-01T02:36:43;4.60;99.90
10583;DHT22;33679;51.218;6.786;2023-03-01T02:39:20;4.60;99.90
10583;DHT22;33679;51.218;6.786;2023-03-01T02:41:59;4.50;99.90
10583;DHT22;33679;51.218;6.786;2023-03-01T02:44:34;4.50;99.90
10583;DHT22;33679;51.218;6.786;2023-03-01T02:47:07;4.60;99.90
10583;DHT22;33679;51.218;6.786;2023-03-01T02:49:43;4.60;99.90
10583;DHT22;33679;51.218;6.786;2023-03-01T02:52:37;4.50;99.90
10583;DHT22;33679;51.218;6.786;2023-03-01T02:55:16;4.60;99.90
10583;DHT22;33679;51.218;6.786;2023-03-01T02:57:49;4.60;99.90
10583;DHT22;33679;51.218;6.786;2023-03-01T03:00:27;4.50;99.90
10583;DHT22;33679;51.218;6.786;2023-03-01T03:03:04;4.50;99.90
10583;DHT22;33679;51.218;6.786;2023-03-01T03:05:38;4.50;99.90
10583;DHT22;33679;51.218;6.786;2023-03-01T03:08:11;4.40;99.90
10583;DHT22;33679;51.218;6.786;2023-03-01T03:10:50;4.40;99.90
10583;DHT22;33679;51.218;6.786;2023-03-01T03:13:25;4.40;99.90
10583;DHT22;33679;51.218;6.786;2023-03-01T03:16:02;4.40;99.90
10583;DHT22;33679;51.218;6.786;2023-03-01T03:18:36;4.40;99.90
10583;DHT22;33679;51.218;6.786;2023-03-01T03:21:11;4.40;99.90
10583;DHT22;33679;51.218;6.786;2023-03-01T03:23:44;4.40;99.90
10583;DHT22;33679;51.218;6.786;2023-03-01T03:26:20;4.40;99.90
10583;DHT22;33679;51.218;6.786;2023-03-01T03:28:53;4.40;99.90
10583;DHT22;33679;51.218;6.786;2023-03-01T03:31:27;4.40;99.90
10583;DHT22;33679;51.218;6.786;2023-03-01T03:34:09;4.40;99.90
10583;DHT22;33679;51.218;6.786;2023-03-01T03:36:53;4.40;99.90
10583;DHT22;33679;51.218;6.786;2023-03-01T03:39:31;4.40;99.90
10583;DHT22;33679;51.218;6.786;2023-03-01T03:42:08;4.40;99.90
10583;DHT22;33679;51.218;6.786;2023-03-01T03:44:44;4.30;99.90
10583;DHT22;33679;51.218;6.786;2023-03-01T03:47:19;4.40;99.90
10583;DHT22;33679;51.218;6.786;2023-03-01T03:49:52;4.30;99.90
10583;DHT22;33679;51.218;6.786;2023-03-01T03:52:32;4.30;99.90
10583;DHT22;33679;51.218;6.786;2023-03-01T03:55:06;4.30;99.90
10583;DHT22;33679;51.218;6.786;2023-03-01T03:57:41;4.30;99.90
10583;DHT22;33679;51.218;6.786;2023-03-01T04:00:17;4.20;99.90
10583;DHT22;33679;51.218;6.786;2023-03-01T04:02:52;4.20;99.90
10583;DHT22;33679;51.218;6.786;2023-03-01T04:05:28;4.20;99.90
10583;DHT22;33679;51.218;6.786;2023-03-01T04:08:01;4.20;99.90
10583;DHT22;33679;51.218;6.786;2023-03-01T04:10:37;4.10;99.90
10583;DHT22;33679;51.218;6.786;2023-03-01T04:13:12;4.10;99.90
10583;DHT22;33679;51.218;6.786;2023-03-01T04:15:45;4.10;99.90
10583;DHT22;33679;51.218;6.786;2023-03-01T04:18:24;4.00;99.90
10583;DHT22;33679;51.218;6.786;2023-03-01T04:20:58;4.00;99.90
10583;DHT22;33679;51.218;6.786;2023-03-01T04:23:36;3.90;99.90
10583;DHT22;33679;51.218;6.786;2023-03-01T04:26:14;4.00;99.90
10583;DHT22;33679;51.218;6.786;2023-03-01T04:28:47;3.90;99.90
10583;DHT22;33679;51.218;6.786;2023-03-01T04:31:21;3.90;99.90
10583;DHT22;33679;51.218;6.786;2023-03-01T04:33:56;3.90;99.90
10583;DHT22;33679;51.218;6.786;2023-03-01T04:36:29;4.00;99.90
10583;DHT22;33679;51.218;6.786;2023-03-01T04:39:02;4.00;99.90
10583;DHT22;33679;51.218;6.786;2023-03-01T04:41:46;3.90;99.90
10583;DHT22;33679;51.218;6.786;2023-03-01T04:44:19;3.90;99.90
10583;DHT22;33679;51.218;6.786;2023-03-01T04:46:53;3.90;99.90
10583;DHT22;33679;51.218;6.786;2023-03-01T04:49:27;4.00;99.90
10583;DHT22;33679;51.218;6.786;2023-03-01T04:52:01;4.00;99.90
10583;DHT22;33679;51.218;6.786;2023-03-01T04:54:35;4.00;99.90
10583;DHT22;33679;51.218;6.786;2023-03-01T04:57:08;4.00;99.90
10583;DHT22;33679;51.218;6.786;2023-03-01T04:59:41;4.00;99.90
10583;DHT22;33679;51.218;6.786;2023-03-01T05:02:13;4.00;99.90
10583;DHT22;33679;51.218;6.786;2023-03-01T05:04:48;4.00;99.90
10583;DHT22;33679;51.218;6.786;2023-03-01T05:07:23;4.00;99.90
10583;DHT22;33679;51.218;6.786;2023-03-01T05:09:57;4.00;99.90
10583;DHT22;33679;51.218;6.786;2023-03-01T05:12:34;4.10;99.90
10583;DHT22;33679;51.218;6.786;2023-03-01T05:15:08;4.00;99.90
10583;DHT22;33679;51.218;6.786;2023-03-01T05:17:41;4.00;99.90
10583;DHT22;33679;51.218;6.786;2023-03-01T05:20:16;4.00;99.90
10583;DHT22;33679;51.218;6.786;2023-03-01T05:22:49;4.00;99.90
10583;DHT22;33679;51.218;6.786;2023-03-01T05:25:21;4.00;99.90
10583;DHT22;33679;51.218;6.786;2023-03-01T05:27:54;4.00;99.90
10583;DHT22;33679;51.218;6.786;2023-03-01T05:30:31;3.90;99.90
10583;DHT22;33679;51.218;6.786;2023-03-01T05:33:06;3.90;99.90
10583;DHT22;33679;51.218;6.786;2023-03-01T05:35:46;3.90;99.90
10583;DHT22;33679;51.218;6.786;2023-03-01T05:38:20;3.90;99.90
10583;DHT22;33679;51.218;6.786;2023-03-01T05:40:53;3.80;99.90
10583;DHT22;33679;51.218;6.786;2023-03-01T05:43:26;3.80;99.90
10583;DHT22;33679;51.218;6.786;2023-03-01T05:46:04;3.80;99.90
10583;DHT22;33679;51.218;6.786;2023-03-01T05:48:36;3.80;99.90
10583;DHT22;33679;51.218;6.786;2023-03-01T05:51:11;3.70;99.90
10583;DHT22;33679;51.218;6.786;2023-03-01T05:53:48;3.70;99.90
10583;DHT22;33679;51.218;6.786;2023-03-01T05:56:57;3.70;99.90
10583;DHT22;33679;51.218;6.786;2023-03-01T05:59:25;3.70;99.90
10583;DHT22;33679;51.218;6.786;2023-03-01T06:01:59;3.70;99.90
10583;DHT22;33679;51.218;6.786;2023-03-01T06:04:31;3.70;99.90
10583;DHT22;33679;51.218;6.786;2023-03-01T06:07:05;3.70;99.90
10583;DHT22;33679;51.218;6.786;2023-03-01T06:09:39;3.70;99.90
10583;DHT22;33679;51.218;6.786;2023-03-01T06:12:11;3.70;99.90
10583;DHT22;33679;51.218;6.786;2023-03-01T06:14:45;3.70;99.90
10583;DHT22;33679;51.218;6.786;2023-03-01T06:17:19;3.70;99.90
10583;DHT22;33679;51.218;6.786;2023-03-01T06:19:52;3.60;99.90
10583;DHT22;33679;51.218;6.786;2023-03-01T06:22:27;3.70;99.90
10583;DHT22;33679;51.218;6.786;2023-03-01T06:25:00;3.70;99.90
10583;DHT22;33679;51.218;6.786;2023-03-01T06:27:33;3.70;99.90
10583;DHT22;33679;51.218;6.786;2023-03-01T06:30:07;3.70;99.90
10583;DHT22;33679;51.218;6.786;2023-03-01T06:32:41;3.70;99.90
10583;DHT22;33679;51.218;6.786;2023-03-01T06:35:15;3.80;99.90
10583;DHT22;33679;51.218;6.786;2023-03-01T06:37:52;3.80;99.90
10583;DHT22;33679;51.218;6.786;2023-03-01T06:40:26;3.80;99.90
10583;DHT22;33679;51.218;6.786;2023-03-01T06:42:59;3.80;99.90
10583;DHT22;33679;51.218;6.786;2023-03-01T06:45:33;3.80;99.90
10583;DHT22;33679;51.218;6.786;2023-03-01T06:48:06;3.70;99.90
10583;DHT22;33679;51.218;6.786;2023-03-01T06:50:39;3.70;99.90
10583;DHT22;33679;51.218;6.786;2023-03-01T06:53:13;3.70;99.90
10583;DHT22;33679;51.218;6.786;2023-03-01T06:55:46;3.80;99.90
10583;DHT22;33679;51.218;6.786;2023-03-01T06:58:19;3.80;99.90
10583;DHT22;33679;51.218;6.786;2023-03-01T07:00:52;3.80;99.90
10583;DHT22;33679;51.218;6.786;2023-03-01T07:03:24;3.70;99.90
10583;DHT22;33679;51.218;6.786;2023-03-01T07:06:03;3.70;99.90
10583;DHT22;33679;51.218;6.786;2023-03-01T07:08:41;3.80;99.90
10583;DHT22;33679;51.218;6.786;2023-03-01T07:11:19;3.80;99.90
10583;DHT22;33679;51.218;6.786;2023-03-01T07:14:07;3.80;99.90
10583;DHT22;33679;51.218;6.786;2023-03-01T07:16:43;3.80;99.90
10583;DHT22;33679;51.218;6.786;2023-03-01T07:19:16;3.80;99.90
10583;DHT22;33679;51.218;6.786;2023-03-01T07:21:53;3.80;99.90
10583;DHT22;33679;51.218;6.786;2023-03-01T07:24:31;3.90;99.90
10583;DHT22;33679;51.218;6.786;2023-03-01T07:27:04;3.80;99.90
10583;DHT22;33679;51.218;6.786;2023-03-01T07:29:37;3.80;99.90
10583;DHT22;33679;51.218;6.786;2023-03-01T07:32:10;3.90;99.90
10583;DHT22;33679;51.218;6.786;2023-03-01T07:34:43;3.90;99.90
10583;DHT22;33679;51.218;6.786;2023-03-01T07:37:16;4.00;99.90
10583;DHT22;33679;51.218;6.786;2023-03-01T07:39:50;4.00;99.90
10583;DHT22;33679;51.218;6.786;2023-03-01T07:42:22;4.40;99.90
10583;DHT22;33679;51.218;6.786;2023-03-01T07:44:55;4.50;99.90
10583;DHT22;33679;51.218;6.786;2023-03-01T07:47:27;4.50;99.90
10583;DHT22;33679;51.218;6.786;2023-03-01T07:50:00;4.40;99.90
10583;DHT22;33679;51.218;6.786;2023-03-01T07:52:35;4.40;99.90
10583;DHT22;33679;51.218;6.786;2023-03-01T07:55:13;4.50;99.90
10583;DHT22;33679;51.218;6.786;2023-03-01T07:57:50;4.50;99.90
10583;DHT22;33679;51.218;6.786;2023-03-01T08:00:23;4.50;99.90
10583;DHT22;33679;51.218;6.786;2023-03-01T08:02:59;4.50;99.90
10583;DHT22;33679;51.218;6.786;2023-03-01T08:05:37;4.50;99.90
10583;DHT22;33679;51.218;6.786;2023-03-01T08:08:11;4.50;99.90
10583;DHT22;33679;51.218;6.786;2023-03-01T08:10:46;4.60;99.90
10583;DHT22;33679;51.218;6.786;2023-03-01T08:13:19;4.60;99.90
10583;DHT22;33679;51.218;6.786;2023-03-01T08:16:02;4.60;99.90
10583;DHT22;33679;51.218;6.786;2023-03-01T08:18:36;4.70;99.90
10583;DHT22;33679;51.218;6.786;2023-03-01T08:21:17;4.70;99.90
10583;DHT22;33679;51.218;6.786;2023-03-01T08:23:53;4.70;99.90
10583;DHT22;33679;51.218;6.786;2023-03-01T08:26:29;4.80;99.90
10583;DHT22;33679;51.218;6.786;2023-03-01T08:29:03;4.80;99.90
10583;DHT22;33679;51.218;6.786;2023-03-01T08:31:38;4.90;99.90
10583;DHT22;33679;51.218;6.786;2023-03-01T08:34:16;4.90;99.90
10583;DHT22;33679;51.218;6.786;2023-03-01T08:36:49;5.00;99.90
10583;DHT22;33679;51.218;6.786;2023-03-01T08:39:23;5.00;99.90
10583;DHT22;33679;51.218;6.786;2023-03-01T08:41:59;5.00;99.90
10583;DHT22;33679;51.218;6.786;2023-03-01T08:44:32;5.10;99.90
10583;DHT22;33679;51.218;6.786;2023-03-01T08:47:06;5.10;99.90
10583;DHT22;33679;51.218;6.786;2023-03-01T08:49:38;5.20;99.90
10583;DHT22;33679;51.218;6.786;2023-03-01T08:52:13;5.20;99.90
10583;DHT22;33679;51.218;6.786;2023-03-01T08:54:47;5.10;99.90
10583;DHT22;33679;51.218;6.786;2023-03-01T08:57:24;5.20;99.90
10583;DHT22;33679;51.218;6.786;2023-03-01T08:59:56;5.20;99.90
10583;DHT22;33679;51.218;6.786;2023-03-01T09:02:28;5.30;99.90
10583;DHT22;33679;51.218;6.786;2023-03-01T09:05:01;5.30;99.90
10583;DHT22;33679;51.218;6.786;2023-03-01T09:07:34;5.30;99.90
10583;DHT22;33679;51.218;6.786;2023-03-01T09:10:08;5.30;99.90
10583;DHT22;33679;51.218;6.786;2023-03-01T09:12:42;5.40;99.90
10583;DHT22;33679;51.218;6.786;2023-03-01T09:15:15;5.50;99.90
10583;DHT22;33679;51.218;6.786;2023-03-01T09:17:47;5.50;99.90
10583;DHT22;33679;51.218;6.786;2023-03-01T09:20:22;5.60;99.90
10583;DHT22;33679;51.218;6.786;2023-03-01T09:22:55;5.60;99.90
10583;DHT22;33679;51.218;6.786;2023-03-01T09:25:28;5.70;99.90
10583;DHT22;33679;51.218;6.786;2023-03-01T09:28:06;5.80;99.90
10583;DHT22;33679;51.218;6.786;2023-03-01T09:30:41;5.90;99.90
10583;DHT22;33679;51.218;6.786;2023-03-01T09:33:15;6.00;99.90
10583;DHT22;33679;51.218;6.786;2023-03-01T09:35:57;6.00;99.90
10583;DHT22;33679;51.218;6.786;2023-03-01T09:38:31;6.10;99.90
10583;DHT22;33679;51.218;6.786;2023-03-01T09:41:10;6.20;99.90
10583;DHT22;33679;51.218;6.786;2023-03-01T09:43:48;6.20;99.90
10583;DHT22;33679;51.218;6.786;2023-03-01T09:46:27;6.30;99.90
10583;DHT22;33679;51.218;6.786;2023-03-01T09:49:02;6.30;99.90
10583;DHT22;33679;51.218;6.786;2023-03-01T09:51:37;6.40;99.90
10583;DHT22;33679;51.218;6.786;2023-03-01T09:54:11;6.40;99.90
10583;DHT22;33679;51.218;6.786;2023-03-01T09:56:51;6.40;99.90
10583;DHT22;33679;51.218;6.786;2023-03-01T09:59:32;6.40;99.90
10583;DHT22;33679;51.218;6.786;2023-03-01T10:02:24;6.50;99.90
10583;DHT22;33679;51.218;6.786;2023-03-01T10:05:10;6.50;99.90
10583;DHT22;33679;51.218;6.786;2023-03-01T10:07:54;6.40;99.90
10583;DHT22;33679;51.218;6.786;2023-03-01T10:10:36;6.40;99.90
10583;DHT22;33679;51.218;6.786;2023-03-01T10:13:29;6.50;99.90
10583;DHT22;33679;51.218;6.786;2023-03-01T10:16:11;6.50;99.90
10583;DHT22;33679;51.218;6.786;2023-03-01T10:18:53;6.50;99.90
10583;DHT22;33679;51.218;6.786;2023-03-01T10:21:31;6.40;99.90
10583;DHT22;33679;51.218;6.786;2023-03-01T10:24:14;6.50;99.90
10583;DHT22;33679;51.218;6.786;2023-03-01T10:26:58;6.60;99.90
10583;DHT22;33679;51.218;6.786;2023-03-01T10:29:49;6.60;99.90
10583;DHT22;33679;51.218;6.786;2023-03-01T10:32:33;6.70;99.90
10583;DHT22;33679;51.218;6.786;2023-03-01T10:35:18;6.70;99.90
10583;DHT22;33679;51.218;6.786;2023-03-01T10:38:00;6.80;99.90
10583;DHT22;33679;51.218;6.786;2023-03-01T10:40:52;6.80;99.90
10583;DHT22;33679;51.218;6.786;2023-03-01T10:43:45;6.90;99.90
10583;DHT22;33679;51.218;6.786;2023-03-01T10:47:05;7.00;99.90
10583;DHT22;33679;51.218;6.786;2023-03-01T10:50:17;7.10;99.90
10583;DHT22;33679;51.218;6.786;2023-03-01T10:52:59;7.20;99.90
10583;DHT22;33679;51.218;6.786;2023-03-01T10:55:35;7.20;99.90
10583;DHT22;33679;51.218;6.786;2023-03-01T10:58:18;7.20;99.90
10583;DHT22;33679;51.218;6.786;2023-03-01T11:01:25;7.20;99.90
10583;DHT22;33679;51.218;6.786;2023-03-01T11:04:21;7.30;99.90
10583;DHT22;33679;51.218;6.786;2023-03-01T11:07:01;7.30;99.90
10583;DHT22;33679;51.218;6.786;2023-03-01T11:09:34;7.30;99.90
10583;DHT22;33679;51.218;6.786;2023-03-01T11:12:16;7.30;99.90
10583;DHT22;33679;51.218;6.786;2023-03-01T11:14:51;7.30;99.90
10583;DHT22;33679;51.218;6.786;2023-03-01T11:17:31;7.40;99.90
10583;DHT22;33679;51.218;6.786;2023-03-01T11:20:26;7.40;99.90
10583;DHT22;33679;51.218;6.786;2023-03-01T11:23:05;7.50;99.90
10583;DHT22;33679;51.218;6.786;2023-03-01T11:25:45;7.60;99.90
10583;DHT22;33679;51.218;6.786;2023-03-01T11:28:25;7.60;99.90
10583;DHT22;33679;51.218;6.786;2023-03-01T11:31:04;7.50;99.90
10583;DHT22;33679;51.218;6.786;2023-03-01T11:33:42;7.60;99.90
10583;DHT22;33679;51.218;6.786;2023-03-01T11:36:22;7.60;99.90
10583;DHT22;33679;51.218;6.786;2023-03-01T11:39:10;7.70;99.90
10583;DHT22;33679;51.218;6.786;2023-03-01T11:42:00;7.70;99.90
10583;DHT22;33679;51.218;6.786;2023-03-01T11:44:35;7.70;99.90
10583;DHT22;33679;51.218;6.786;2023-03-01T11:47:21;7.80;99.90
10583;DHT22;33679;51.218;6.786;2023-03-01T11:50:09;7.80;99.90
10583;DHT22;33679;51.218;6.786;2023-03-01T11:53:01;7.80;99.90
10583;DHT22;33679;51.218;6.786;2023-03-01T11:58:59;7.80;99.90
10583;DHT22;33679;51.218;6.786;2023-03-01T12:01:51;7.70;99.90
10583;DHT22;33679;51.218;6.786;2023-03-01T12:05:06;7.80;99.90
10583;DHT22;33679;51.218;6.786;2023-03-01T12:07:55;7.90;99.90
10583;DHT22;33679;51.218;6.786;2023-03-01T12:10:48;7.90;99.90
10583;DHT22;33679;51.218;6.786;2023-03-01T12:13:54;7.90;99.90
10583;DHT22;33679;51.218;6.786;2023-03-01T12:17:29;8.00;99.90
10583;DHT22;33679;51.218;6.786;2023-03-01T12:20:24;8.00;99.90
10583;DHT22;33679;51.218;6.786;2023-03-01T12:23:35;8.00;99.90
10583;DHT22;33679;51.218;6.786;2023-03-01T12:26:20;7.90;99.90
10583;DHT22;33679;51.218;6.786;2023-03-01T12:29:14;7.80;99.90
10583;DHT22;33679;51.218;6.786;2023-03-01T12:32:18;7.90;99.90
10583;DHT22;33679;51.218;6.786;2023-03-01T12:35:26;8.00;99.90
10583;DHT22;33679;51.218;6.786;2023-03-01T12:38:16;7.90;99.90
10583;DHT22;33679;51.218;6.786;2023-03-01T12:41:31;7.90;99.90
10583;DHT22;33679;51.218;6.786;2023-03-01T12:44:23;8.00;99.90
10583;DHT22;33679;51.218;6.786;2023-03-01T12:47:14;8.10;99.90
10583;DHT22;33679;51.218;6.786;2023-03-01T12:49:54;8.20;99.90
10583;DHT22;33679;51.218;6.786;2023-03-01T12:52:38;8.20;99.90
10583;DHT22;33679;51.218;6.786;2023-03-01T12:55:23;8.40;99.90
10583;DHT22;33679;51.218;6.786;2023-03-01T12:58:06;8.50;99.90
10583;DHT22;33679;51.218;6.786;2023-03-01T13:01:03;8.50;99.90
10583;DHT22;33679;51.218;6.786;2023-03-01T13:04:01;8.40;99.90
10583;DHT22;33679;51.218;6.786;2023-03-01T13:06:43;8.50;99.90
10583;DHT22;33679;51.218;6.786;2023-03-01T13:09:24;8.50;99.90
10583;DHT22;33679;51.218;6.786;2023-03-01T13:12:03;8.60;99.90
10583;DHT22;33679;51.218;6.786;2023-03-01T13:18:31;8.70;99.90
10583;DHT22;33679;51.218;6.786;2023-03-01T13:21:06;8.80;99.90
10583;DHT22;33679;51.218;6.786;2023-03-01T13:23:48;8.80;99.90
10583;DHT22;33679;51.218;6.786;2023-03-01T13:26:20;8.80;99.90
10583;DHT22;33679;51.218;6.786;2023-03-01T13:29:11;8.80;99.90
10583;DHT22;33679;51.218;6.786;2023-03-01T13:32:06;8.80;99.90
10583;DHT22;33679;51.218;6.786;2023-03-01T13:34:57;8.80;99.90
10583;DHT22;33679;51.218;6.786;2023-03-01T13:37:37;8.80;99.90
10583;DHT22;33679;51.218;6.786;2023-03-01T13:43:32;8.80;99.90
10583;DHT22;33679;51.218;6.786;2023-03-01T13:46:15;8.80;99.90
10583;DHT22;33679;51.218;6.786;2023-03-01T13:48:51;8.80;99.90
10583;DHT22;33679;51.218;6.786;2023-03-01T13:51:28;8.80;99.90
10583;DHT22;33679;51.218;6.786;2023-03-01T13:54:09;8.90;99.90
10583;DHT22;33679;51.218;6.786;2023-03-01T13:56:44;8.90;99.90
10583;DHT22;33679;51.218;6.786;2023-03-01T13:59:20;8.80;99.90
10583;DHT22;33679;51.218;6.786;2023-03-01T14:02:00;8.80;99.90
10583;DHT22;33679;51.218;6.786;2023-03-01T14:04:41;8.80;99.90
10583;DHT22;33679;51.218;6.786;2023-03-01T14:07:22;8.90;99.90
10583;DHT22;33679;51.218;6.786;2023-03-01T14:10:03;8.90;99.90
10583;DHT22;33679;51.218;6.786;2023-03-01T14:12:46;8.90;99.90
10583;DHT22;33679;51.218;6.786;2023-03-01T14:15:29;8.90;99.90
10583;DHT22;33679;51.218;6.786;2023-03-01T14:18:10;9.00;99.90
10583;DHT22;33679;51.218;6.786;2023-03-01T14:20:48;8.90;99.90
10583;DHT22;33679;51.218;6.786;2023-03-01T14:23:32;8.90;99.90
10583;DHT22;33679;51.218;6.786;2023-03-01T14:26:11;8.80;99.90
10583;DHT22;33679;51.218;6.786;2023-03-01T14:28:44;8.90;99.90
10583;DHT22;33679;51.218;6.786;2023-03-01T14:31:32;8.80;99.90
10583;DHT22;33679;51.218;6.786;2023-03-01T14:34:16;8.80;99.90
10583;DHT22;33679;51.218;6.786;2023-03-01T14:36:48;8.80;99.90
10583;DHT22;33679;51.218;6.786;2023-03-01T14:39:25;8.80;99.90
10583;DHT22;33679;51.218;6.786;2023-03-01T14:41:59;8.90;99.90
10583;DHT22;33679;51.218;6.786;2023-03-01T14:44:34;8.90;99.90
10583;DHT22;33679;51.218;6.786;2023-03-01T14:47:11;8.90;99.90
10583;DHT22;33679;51.218;6.786;2023-03-01T14:49:45;9.00;99.90
10583;DHT22;33679;51.218;6.786;2023-03-01T14:52:21;9.00;99.90
10583;DHT22;33679;51.218;6.786;2023-03-01T14:54:58;9.00;99.90
10583;DHT22;33679;51.218;6.786;2023-03-01T14:57:31;9.00;99.90
10583;DHT22;33679;51.218;6.786;2023-03-01T15:00:06;8.90;99.90
10583;DHT22;33679;51.218;6.786;2023-03-01T15:02:39;8.90;99.90
10583;DHT22;33679;51.218;6.786;2023-03-01T15:05:20;8.90;99.90
10583;DHT22;33679;51.218;6.786;2023-03-01T15:07:58;8.90;99.90
10583;DHT22;33679;51.218;6.786;2023-03-01T15:10:37;8.90;99.90
10583;DHT22;33679;51.218;6.786;2023-03-01T15:13:20;8.90;99.90
10583;DHT22;33679;51.218;6.786;2023-03-01T15:15:54;8.90;99.90
10583;DHT22;33679;51.218;6.786;2023-03-01T15:18:34;8.90;99.90
10583;DHT22;33679;51.218;6.786;2023-03-01T15:21:09;8.90;99.90
10583;DHT22;33679;51.218;6.786;2023-03-01T15:23:47;8.80;99.90
10583;DHT22;33679;51.218;6.786;2023-03-01T15:26:29;8.80;99.90
10583;DHT22;33679;51.218;6.786;2023-03-01T15:29:02;8.90;99.90
10583;DHT22;33679;51.218;6.786;2023-03-01T15:31:36;8.90;99.90
10583;DHT22;33679;51.218;6.786;2023-03-01T15:34:21;9.00;99.90
10583;DHT22;33679;51.218;6.786;2023-03-01T15:36:59;9.00;99.90
10583;DHT22;33679;51.218;6.786;2023-03-01T15:39:53;9.00;99.90
10583;DHT22;33679;51.218;6.786;2023-03-01T15:42:39;9.00;99.90
10583;DHT22;33679;51.218;6.786;2023-03-01T15:45:23;9.10;99.90
10583;DHT22;33679;51.218;6.786;2023-03-01T15:48:02;9.00;99.90
10583;DHT22;33679;51.218;6.786;2023-03-01T15:50:36;9.00;99.90
10583;DHT22;33679;51.218;6.786;2023-03-01T15:53:12;9.00;99.90
10583;DHT22;33679;51.218;6.786;2023-03-01T15:55:46;9.00;99.90
10583;DHT22;33679;51.218;6.786;2023-03-01T15:58:23;9.00;99.90
10583;DHT22;33679;51.218;6.786;2023-03-01T16:00:56;9.00;99.90
10583;DHT22;33679;51.218;6.786;2023-03-01T16:03:30;9.00;99.90
10583;DHT22;33679;51.218;6.786;2023-03-01T16:06:04;9.00;99.90
10583;DHT22;33679;51.218;6.786;2023-03-01T16:08:38;9.00;99.90
10583;DHT22;33679;51.218;6.786;2023-03-01T16:11:15;9.00;99.90
10583;DHT22;33679;51.218;6.786;2023-03-01T16:13:49;8.90;99.90
10583;DHT22;33679;51.218;6.786;2023-03-01T16:16:23;9.00;99.90
10583;DHT22;33679;51.218;6.786;2023-03-01T16:18:56;8.90;99.90
10583;DHT22;33679;51.218;6.786;2023-03-01T16:21:29;8.90;99.90
10583;DHT22;33679;51.218;6.786;2023-03-01T16:24:01;8.90;99.90
10583;DHT22;33679;51.218;6.786;2023-03-01T16:26:36;8.90;99.90
10583;DHT22;33679;51.218;6.786;2023-03-01T16:29:11;8.90;99.90
10583;DHT22;33679;51.218;6.786;2023-03-01T16:31:43;8.90;99.90
10583;DHT22;33679;51.218;6.786;2023-03-01T16:34:17;8.80;99.90
10583;DHT22;33679;51.218;6.786;2023-03-01T16:36:53;8.70;99.90
10583;DHT22;33679;51.218;6.786;2023-03-01T16:39:26;8.70;99.90
10583;DHT22;33679;51.218;6.786;2023-03-01T16:42:00;8.70;99.90
10583;DHT22;33679;51.218;6.786;2023-03-01T16:44:34;8.60;99.90
10583;DHT22;33679;51.218;6.786;2023-03-01T16:47:06;8.60;99.90
10583;DHT22;33679;51.218;6.786;2023-03-01T16:49:40;8.60;99.90
10583;DHT22;33679;51.218;6.786;2023-03-01T16:52:13;8.60;99.90
10583;DHT22;33679;51.218;6.786;2023-03-01T16:54:46;8.60;99.90
10583;DHT22;33679;51.218;6.786;2023-03-01T16:57:20;8.60;99.90
10583;DHT22;33679;51.218;6.786;2023-03-01T16:59:55;8.50;99.90
10583;DHT22;33679;51.218;6.786;2023-03-01T17:02:27;8.50;99.90
10583;DHT22;33679;51.218;6.786;2023-03-01T17:05:00;8.50;99.90